createdAt,value
2018-06-17T00:00:01.826Z,20.50
2018-06-17T00:02:30.487Z,20.41
2018-06-17T00:04:59.100Z,20.48
2018-06-17T00:07:27.778Z,20.37
2018-06-17T00:09:56.373Z,20.30
2018-06-17T00:12:25.031Z,20.23
2018-06-17T00:14:53.653Z,20.28
2018-06-17T00:17:22.399Z,20.08
2018-06-17T00:19:51.127Z,20.02
2018-06-17T00:22:20.034Z,19.95
2018-06-17T00:24:48.675Z,19.86
2018-06-17T00:27:17.322Z,19.84
2018-06-17T00:29:46.218Z,19.81
2018-06-17T00:32:15.245Z,19.86
2018-06-17T00:34:43.818Z,19.84
2018-06-17T00:37:13.084Z,19.65
2018-06-17T00:39:41.720Z,19.61
2018-06-17T00:42:11.058Z,19.58
2018-06-17T00:44:39.794Z,19.68
2018-06-17T00:47:08.437Z,19.68
2018-06-17T00:49:37.033Z,19.53
2018-06-17T00:52:05.836Z,19.55
2018-06-17T00:54:34.434Z,19.52
2018-06-17T00:57:14.103Z,19.67
2018-06-17T00:59:42.722Z,19.73
2018-06-17T01:02:11.380Z,19.75
2018-06-17T01:04:40.106Z,19.77
2018-06-17T01:07:08.905Z,19.88
2018-06-17T01:09:37.615Z,19.87
2018-06-17T01:12:06.278Z,19.78
2018-06-17T01:14:34.890Z,19.76
2018-06-17T01:17:03.522Z,19.75
2018-06-17T01:19:32.283Z,19.75
2018-06-17T01:22:01.530Z,19.79
2018-06-17T01:24:30.141Z,19.78
2018-06-17T01:26:58.713Z,19.71
2018-06-17T01:29:27.349Z,19.63
2018-06-17T01:31:55.994Z,19.65
2018-06-17T01:34:24.634Z,19.77
2018-06-17T01:36:53.255Z,19.73
2018-06-17T01:39:21.826Z,19.77
2018-06-17T01:41:50.417Z,19.71
2018-06-17T01:44:19.108Z,19.69
2018-06-17T01:46:47.724Z,19.66
2018-06-17T01:49:16.377Z,19.65
2018-06-17T01:51:45.007Z,19.61
2018-06-17T01:54:13.653Z,19.61
2018-06-17T01:56:42.262Z,19.63
2018-06-17T01:59:10.893Z,19.69
2018-06-17T02:01:39.488Z,19.70
2018-06-17T02:04:13.268Z,19.69
2018-06-17T02:06:47.072Z,19.56
2018-06-17T02:09:20.954Z,19.46
2018-06-17T02:11:54.819Z,19.37
2018-06-17T02:14:28.685Z,19.41
2018-06-17T02:16:57.297Z,19.34
2018-06-17T02:19:26.572Z,19.33
2018-06-17T02:21:55.200Z,19.28
2018-06-17T02:24:24.250Z,19.36
2018-06-17T02:26:53.550Z,19.39
2018-06-17T02:29:22.216Z,19.34
2018-06-17T02:31:50.878Z,19.36
2018-06-17T02:34:19.602Z,19.42
2018-06-17T02:36:48.267Z,19.45
2018-06-17T02:39:16.839Z,19.46
2018-06-17T02:41:45.510Z,19.55
2018-06-17T02:44:14.108Z,19.49
2018-06-17T02:46:47.920Z,19.68
2018-06-17T02:49:21.607Z,19.89
2018-06-17T02:51:55.360Z,19.92
2018-06-17T02:54:29.109Z,19.77
2018-06-17T02:56:57.722Z,19.83
2018-06-17T02:59:26.299Z,19.87
2018-06-17T03:01:54.882Z,19.96
2018-06-17T03:04:23.525Z,19.95
2018-06-17T03:06:52.130Z,19.84
2018-06-17T03:09:20.724Z,19.88
2018-06-17T03:11:49.412Z,19.89
2018-06-17T03:14:18.756Z,19.85
2018-06-17T03:16:47.351Z,19.89
2018-06-17T03:19:16.995Z,19.83
2018-06-17T03:21:45.598Z,19.76
2018-06-17T03:24:14.234Z,19.83
2018-06-17T03:26:47.889Z,20.10
2018-06-17T03:29:21.542Z,19.96
2018-06-17T03:31:55.211Z,19.92
2018-06-17T03:34:23.845Z,19.87
2018-06-17T03:36:52.465Z,19.96
2018-06-17T03:39:21.092Z,20.08
2018-06-17T03:41:49.769Z,20.11
2018-06-17T03:44:18.346Z,20.10
2018-06-17T03:46:46.932Z,20.07
2018-06-17T03:49:15.501Z,20.12
2018-06-17T03:51:44.132Z,20.22
2018-06-17T03:54:12.747Z,20.27
2018-06-17T03:56:41.385Z,20.46
2018-06-17T03:59:10.075Z,20.42
2018-06-17T04:01:38.705Z,20.29
2018-06-17T04:04:07.370Z,20.33
2018-06-17T04:06:36.255Z,20.30
2018-06-17T04:09:06.374Z,20.41
2018-06-17T04:11:35.382Z,20.30
2018-06-17T04:14:03.970Z,20.46
2018-06-17T04:16:32.585Z,20.53
2018-06-17T04:19:01.187Z,20.55
2018-06-17T04:21:29.854Z,20.62
2018-06-17T04:23:58.428Z,20.77
2018-06-17T04:26:27.111Z,20.92
2018-06-17T04:28:55.689Z,20.93
2018-06-17T04:31:24.262Z,20.94
2018-06-17T04:33:53.685Z,20.96
2018-06-17T04:36:23.130Z,21.02
2018-06-17T04:38:51.709Z,21.12
2018-06-17T04:41:20.306Z,21.29
2018-06-17T04:43:48.987Z,21.29
2018-06-17T04:46:17.571Z,21.35
2018-06-17T04:48:46.145Z,21.38
2018-06-17T04:51:14.750Z,21.45
2018-06-17T04:53:43.313Z,21.49
2018-06-17T04:56:11.908Z,21.55
2018-06-17T04:58:40.519Z,21.67
2018-06-17T05:01:09.142Z,21.67
2018-06-17T05:03:37.715Z,21.84
2018-06-17T05:06:06.380Z,21.83
2018-06-17T05:08:34.957Z,21.92
2018-06-17T05:11:03.534Z,22.02
2018-06-17T05:13:32.129Z,22.21
2018-06-17T05:16:00.697Z,22.16
2018-06-17T05:18:29.263Z,22.19
2018-06-17T05:20:57.823Z,22.24
2018-06-17T05:23:26.420Z,22.29
2018-06-17T05:25:54.984Z,22.36
2018-06-17T05:28:23.539Z,22.41
2018-06-17T05:30:52.156Z,22.48
2018-06-17T05:33:20.793Z,22.51
2018-06-17T05:35:49.409Z,22.61
2018-06-17T05:38:18.005Z,22.70
2018-06-17T05:40:46.599Z,22.73
2018-06-17T05:43:15.238Z,22.81
2018-06-17T05:45:43.897Z,22.87
2018-06-17T05:48:12.496Z,22.90
2018-06-17T05:50:41.063Z,22.92
2018-06-17T05:53:09.641Z,22.79
2018-06-17T05:55:38.314Z,22.73
2018-06-17T05:58:06.913Z,22.95
2018-06-17T06:00:35.475Z,23.05
2018-06-17T06:03:04.103Z,22.93
2018-06-17T06:05:32.663Z,22.97
2018-06-17T06:08:01.254Z,23.16
2018-06-17T06:10:29.927Z,23.02
2018-06-17T06:12:58.514Z,23.07
2018-06-17T06:15:27.323Z,23.22
2018-06-17T06:17:55.909Z,23.21
2018-06-17T06:20:24.553Z,23.38
2018-06-17T06:22:53.140Z,23.49
2018-06-17T06:25:21.773Z,23.53
2018-06-17T06:27:50.344Z,23.54
2018-06-17T06:30:18.945Z,23.64
2018-06-17T06:32:47.561Z,23.70
2018-06-17T06:35:16.176Z,23.76
2018-06-17T06:37:44.761Z,23.72
2018-06-17T06:40:13.514Z,23.93
2018-06-17T06:42:42.147Z,24.01
2018-06-17T06:45:10.718Z,24.02
2018-06-17T06:47:39.292Z,24.00
2018-06-17T06:50:07.907Z,24.06
2018-06-17T06:52:36.489Z,24.21
2018-06-17T06:55:05.078Z,24.15
2018-06-17T06:57:33.727Z,24.01
2018-06-17T07:00:02.330Z,24.08
2018-06-17T07:02:41.837Z,24.09
2018-06-17T07:05:21.449Z,24.03
2018-06-17T07:08:00.913Z,24.16
2018-06-17T07:10:30.355Z,24.38
2018-06-17T07:12:58.957Z,24.34
2018-06-17T07:17:43.233Z,24.41
2018-06-17T07:20:11.810Z,24.36
2018-06-17T07:22:40.440Z,24.42
2018-06-17T07:25:11.319Z,24.33
2018-06-17T07:29:59.932Z,24.31
2018-06-17T07:32:28.610Z,24.66
2018-06-17T07:34:57.212Z,24.54
2018-06-17T07:37:25.802Z,24.57
2018-06-17T07:40:57.722Z,24.61
2018-06-17T07:43:26.335Z,24.93
2018-06-17T07:45:54.983Z,24.81
2018-06-17T07:49:44.026Z,24.60
2018-06-17T07:52:24.445Z,24.70
2018-06-17T07:54:53.073Z,24.86
2018-06-17T07:57:22.935Z,24.83
2018-06-17T07:59:51.514Z,25.00
2018-06-17T08:02:20.874Z,25.36
2018-06-17T08:04:49.578Z,25.57
2018-06-17T08:07:19.449Z,25.53
2018-06-17T08:09:48.848Z,25.55
2018-06-17T08:12:17.515Z,25.50
2018-06-17T08:14:46.252Z,25.47
2018-06-17T08:17:14.890Z,25.55
2018-06-17T08:19:43.941Z,25.24
2018-06-17T08:22:12.554Z,25.12
2018-06-17T08:24:41.204Z,25.38
2018-06-17T08:27:10.791Z,25.37
2018-06-17T08:29:40.191Z,25.40
2018-06-17T08:32:08.833Z,25.31
2018-06-17T08:34:37.518Z,25.37
2018-06-17T08:37:11.175Z,25.41
2018-06-17T08:39:40.324Z,25.42
2018-06-17T08:42:08.968Z,25.67
2018-06-17T08:44:37.684Z,25.85
2018-06-17T08:47:06.427Z,25.96
2018-06-17T08:49:41.408Z,25.86
2018-06-17T08:52:10.188Z,25.99
2018-06-17T08:54:38.793Z,26.16
2018-06-17T08:57:08.337Z,26.17
2018-06-17T08:59:37.112Z,26.14
2018-06-17T09:02:06.299Z,26.30
2018-06-17T09:04:35.007Z,26.21
2018-06-17T09:07:04.298Z,26.25
2018-06-17T09:09:32.961Z,26.38
2018-06-17T09:12:01.886Z,26.55
2018-06-17T09:14:30.490Z,26.33
2018-06-17T09:16:59.667Z,26.34
2018-06-17T09:19:28.313Z,26.30
2018-06-17T09:21:57.779Z,26.10
2018-06-17T09:24:26.430Z,26.21
2018-06-17T09:26:55.090Z,26.36
2018-06-17T09:29:23.722Z,26.43
2018-06-17T09:31:52.488Z,26.49
2018-06-17T09:34:21.155Z,26.40
2018-06-17T09:36:49.894Z,26.44
2018-06-17T09:39:18.557Z,26.57
2018-06-17T09:41:47.166Z,26.77
2018-06-17T09:44:15.800Z,26.78
2018-06-17T09:46:46.998Z,27.00
2018-06-17T09:49:15.761Z,26.91
2018-06-17T09:51:49.852Z,27.19
2018-06-17T09:54:18.733Z,27.31
2018-06-17T09:56:47.389Z,27.38
2018-06-17T09:59:16.009Z,27.40
2018-06-17T10:01:44.684Z,27.43
2018-06-17T10:04:13.354Z,27.32
2018-06-17T10:06:42.006Z,27.36
2018-06-17T10:09:11.361Z,27.39
2018-06-17T10:11:40.147Z,27.67
2018-06-17T10:14:08.930Z,27.89
2018-06-17T10:16:37.695Z,27.67
2018-06-17T10:19:06.574Z,27.63
2018-06-17T10:21:35.259Z,28.03
2018-06-17T10:24:03.991Z,28.05
2018-06-17T10:26:32.680Z,27.81
2018-06-17T10:29:04.292Z,27.99
2018-06-17T10:44:24.103Z,28.65
2018-06-17T10:46:54.078Z,28.57
2018-06-17T10:49:22.738Z,28.99
2018-06-17T10:51:52.554Z,29.19
2018-06-17T10:54:21.209Z,29.27
2018-06-17T10:56:49.838Z,29.28
2018-06-17T10:59:18.523Z,29.28
2018-06-17T11:01:47.196Z,29.43
2018-06-17T11:04:16.370Z,29.54
2018-06-17T11:06:44.994Z,29.48
2018-06-17T11:09:13.770Z,29.89
2018-06-17T11:11:42.579Z,29.49
2018-06-17T11:14:11.305Z,28.79
2018-06-17T11:16:39.954Z,28.67
2018-06-17T11:19:10.402Z,28.70
2018-06-17T11:21:39.049Z,28.62
2018-06-17T11:24:08.094Z,28.93
2018-06-17T11:26:36.823Z,28.98
2018-06-17T11:29:05.440Z,29.27
2018-06-17T11:31:34.110Z,29.53
2018-06-17T11:34:02.781Z,29.63
2018-06-17T11:36:31.468Z,29.60
2018-06-17T11:39:00.196Z,29.80
2018-06-17T11:41:28.995Z,29.28
2018-06-17T11:43:57.870Z,28.57
2018-06-17T11:46:26.595Z,28.78
2018-06-17T11:48:55.214Z,28.55
2018-06-17T11:51:23.901Z,29.15
2018-06-17T11:53:52.498Z,29.38
2018-06-17T11:56:21.185Z,29.69
2018-06-17T11:58:50.025Z,30.04
2018-06-17T12:01:18.666Z,30.12
2018-06-17T12:03:47.828Z,30.20
2018-06-17T12:06:18.175Z,30.50
2018-06-17T12:08:49.035Z,30.31
2018-06-17T12:11:17.690Z,30.67
2018-06-17T12:13:46.705Z,30.79
2018-06-17T12:16:15.341Z,30.70
2018-06-17T12:18:44.010Z,30.27
2018-06-17T12:21:12.637Z,29.78
2018-06-17T12:23:41.715Z,29.99
2018-06-17T12:26:11.389Z,30.45
2018-06-17T12:28:41.967Z,30.77
2018-06-17T12:31:10.873Z,31.33
2018-06-17T12:33:39.553Z,31.22
2018-06-17T12:36:09.801Z,31.12
2018-06-17T12:38:38.569Z,30.96
2018-06-17T12:41:07.794Z,30.96
2018-06-17T12:43:37.397Z,31.36
2018-06-17T12:46:06.482Z,31.07
2018-06-17T12:48:35.497Z,30.76
2018-06-17T12:51:04.375Z,31.27
2018-06-17T12:53:33.112Z,31.70
2018-06-17T12:56:01.734Z,31.66
2018-06-17T12:58:30.341Z,30.72
2018-06-17T13:00:58.965Z,29.95
2018-06-17T13:03:27.609Z,29.25
2018-06-17T13:05:56.282Z,28.86
2018-06-17T13:08:24.911Z,28.69
2018-06-17T13:10:53.773Z,28.43
2018-06-17T13:13:22.435Z,28.28
2018-06-17T13:15:51.085Z,27.90
2018-06-17T13:18:19.702Z,27.79
2018-06-17T13:20:48.357Z,27.64
2018-06-17T13:23:16.973Z,27.46
2018-06-17T13:25:45.742Z,27.20
2018-06-17T13:28:14.412Z,27.21
2018-06-17T13:30:43.159Z,27.16
2018-06-17T13:33:11.861Z,27.07
2018-06-17T13:35:40.828Z,27.14
2018-06-17T13:38:09.484Z,27.19
2018-06-17T13:40:38.113Z,26.98
2018-06-17T13:43:06.819Z,26.85
2018-06-17T13:45:35.471Z,26.82
2018-06-17T13:48:04.133Z,26.90
2018-06-17T13:50:32.770Z,27.01
2018-06-17T13:53:01.672Z,26.97
2018-06-17T13:55:30.294Z,26.95
2018-06-17T13:57:58.970Z,26.98
2018-06-17T14:00:27.587Z,26.95
2018-06-17T14:02:56.202Z,26.90
2018-06-17T14:05:24.832Z,26.86
2018-06-17T14:07:53.468Z,26.61
2018-06-17T14:10:22.150Z,26.52
2018-06-17T14:12:50.917Z,26.54
2018-06-17T14:15:20.940Z,26.67
2018-06-17T14:17:49.620Z,26.74
2018-06-17T14:20:21.823Z,26.67
2018-06-17T14:22:51.794Z,26.86
2018-06-17T14:25:20.409Z,27.02
2018-06-17T14:27:49.596Z,26.83
2018-06-17T14:30:18.232Z,26.78
2018-06-17T14:32:46.873Z,26.92
2018-06-17T14:35:15.566Z,27.01
2018-06-17T14:37:44.225Z,26.96
2018-06-17T14:40:13.548Z,26.68
2018-06-17T14:44:52.307Z,26.70
2018-06-17T14:47:25.921Z,26.86
2018-06-17T14:49:59.574Z,26.80
2018-06-17T14:53:34.535Z,27.02
2018-06-17T14:56:03.158Z,27.31
2018-06-17T14:58:31.779Z,27.39
2018-06-17T15:01:00.437Z,27.29
2018-06-17T15:03:29.157Z,27.32
2018-06-17T15:05:57.978Z,27.67
2018-06-17T15:08:26.658Z,27.88
2018-06-17T15:10:55.392Z,27.70
2018-06-17T15:13:24.000Z,27.71
2018-06-17T15:15:52.694Z,27.65
2018-06-17T15:18:21.473Z,27.59
2018-06-17T15:20:50.631Z,27.56
2018-06-17T15:23:19.277Z,27.66
2018-06-17T15:25:47.958Z,28.05
2018-06-17T15:28:16.599Z,28.14
2018-06-17T15:30:45.239Z,28.08
2018-06-17T15:33:19.074Z,27.95
2018-06-17T15:35:52.735Z,27.91
2018-06-17T15:38:26.375Z,27.77
2018-06-17T15:41:00.249Z,27.79
2018-06-17T15:43:28.963Z,27.73
2018-06-17T15:45:58.077Z,27.56
2018-06-17T15:48:26.725Z,27.32
2018-06-17T15:50:55.560Z,27.40
2018-06-17T15:53:24.142Z,27.37
2018-06-17T15:55:53.517Z,27.41
2018-06-17T15:58:22.880Z,27.44
2018-06-17T16:00:51.610Z,27.39
2018-06-17T16:03:20.254Z,27.25
2018-06-17T16:05:48.938Z,27.19
2018-06-17T16:08:17.564Z,27.23
2018-06-17T16:10:46.257Z,27.33
2018-06-17T16:13:20.384Z,27.19
2018-06-17T16:15:54.041Z,27.10
2018-06-17T16:18:27.778Z,27.14
2018-06-17T16:20:59.403Z,27.11
2018-06-17T16:23:29.858Z,27.10
2018-06-17T16:25:58.702Z,27.01
2018-06-17T16:28:27.341Z,27.08
2018-06-17T16:30:56.209Z,27.03
2018-06-17T16:33:24.995Z,26.86
2018-06-17T16:35:53.796Z,26.64
2018-06-17T16:38:22.670Z,26.55
2018-06-17T16:40:51.778Z,26.55
2018-06-17T16:43:20.413Z,26.58
2018-06-17T16:45:49.125Z,26.56
2018-06-17T16:48:17.756Z,26.44
2018-06-17T16:50:51.857Z,26.38
2018-06-17T16:53:25.493Z,26.48
2018-06-17T16:55:59.399Z,26.41
2018-06-17T16:58:33.026Z,26.47
2018-06-17T17:01:01.740Z,26.42
2018-06-17T17:03:30.382Z,26.40
2018-06-17T17:05:59.070Z,26.35
2018-06-17T17:08:27.723Z,26.19
2018-06-17T17:10:56.404Z,26.22
2018-06-17T17:13:25.025Z,26.15
2018-06-17T17:15:53.605Z,26.28
2018-06-17T17:18:22.226Z,26.23
2018-06-17T17:20:51.064Z,26.15
2018-06-17T17:23:19.767Z,26.12
2018-06-17T17:25:48.410Z,26.06
2018-06-17T17:28:17.140Z,25.91
2018-06-17T17:30:48.923Z,26.01
2018-06-17T17:33:22.789Z,26.04
2018-06-17T17:35:56.883Z,26.01
2018-06-17T17:38:34.165Z,26.10
2018-06-17T17:41:04.841Z,26.06
2018-06-17T17:43:33.458Z,25.99
2018-06-17T17:46:07.192Z,25.89
2018-06-17T17:48:35.868Z,25.86
2018-06-17T17:51:04.627Z,25.89
2018-06-17T17:53:33.293Z,25.83
2018-06-17T17:56:01.969Z,25.84
2018-06-17T17:58:30.590Z,25.81
2018-06-17T18:00:59.271Z,25.71
2018-06-17T18:03:27.914Z,25.70
2018-06-17T18:05:57.229Z,25.73
2018-06-17T18:08:25.942Z,25.77
2018-06-17T18:10:54.591Z,25.77
2018-06-17T18:13:24.175Z,25.68
2018-06-17T18:15:52.796Z,25.68
2018-06-17T18:18:21.433Z,25.57
2018-06-17T18:20:50.093Z,25.52
2018-06-17T18:23:18.757Z,25.57
2018-06-17T18:25:52.405Z,25.40
2018-06-17T18:28:26.298Z,25.38
2018-06-17T18:30:56.764Z,25.33
2018-06-17T18:33:30.523Z,25.26
2018-06-17T18:36:04.229Z,25.29
2018-06-17T18:38:32.911Z,25.24
2018-06-17T18:41:01.554Z,25.28
2018-06-17T18:43:30.247Z,25.07
2018-06-17T18:45:58.950Z,25.00
2018-06-17T18:48:27.583Z,24.88
2018-06-17T18:50:56.267Z,24.84
2018-06-17T18:53:25.822Z,24.76
2018-06-17T18:55:54.722Z,24.67
2018-06-17T18:58:23.531Z,24.67
2018-06-17T19:00:58.818Z,24.63
2018-06-17T19:03:27.483Z,24.57
2018-06-17T19:05:56.343Z,24.64
2018-06-17T19:08:30.221Z,24.79
2018-06-17T19:11:03.965Z,24.90
2018-06-17T19:13:37.696Z,24.71
2018-06-17T19:16:14.105Z,24.67
2018-06-17T19:18:42.809Z,24.56
2018-06-17T19:21:17.906Z,24.55
2018-06-17T19:23:46.594Z,24.48
2018-06-17T19:26:15.263Z,24.49
2018-06-17T19:28:43.934Z,24.53
2018-06-17T19:31:12.624Z,24.43
2018-06-17T19:33:41.303Z,24.38
2018-06-17T19:36:10.014Z,24.27
2018-06-17T19:38:39.314Z,24.20
2018-06-17T19:41:07.978Z,24.17
2018-06-17T19:43:36.687Z,24.11
2018-06-17T19:46:05.390Z,24.18
2018-06-17T19:48:34.799Z,24.15
2018-06-17T19:51:08.591Z,24.14
2018-06-17T19:55:46.323Z,24.09
2018-06-17T19:58:20.082Z,24.18
2018-06-17T20:00:51.302Z,24.14
2018-06-17T20:03:19.905Z,24.06
2018-06-17T20:05:48.618Z,24.00
2018-06-17T20:08:17.301Z,24.02
2018-06-17T20:10:46.263Z,23.97
2018-06-17T20:13:14.874Z,23.97
2018-06-17T20:15:43.554Z,23.99
2018-06-17T20:18:12.257Z,24.03
2018-06-17T20:20:41.172Z,23.93
2018-06-17T20:23:09.909Z,23.87
2018-06-17T20:25:38.663Z,23.89
2018-06-17T20:28:07.283Z,23.78
2018-06-17T20:30:35.892Z,23.82
2018-06-17T20:33:09.638Z,23.84
2018-06-17T20:35:43.471Z,23.89
2018-06-17T20:38:17.144Z,23.82
2018-06-17T20:40:51.002Z,23.88
2018-06-17T20:43:24.894Z,23.79
2018-06-17T20:45:53.714Z,23.80
2018-06-17T20:48:23.161Z,23.77
2018-06-17T20:50:51.869Z,23.74
2018-06-17T20:53:20.627Z,23.64
2018-06-17T20:55:49.325Z,23.59
2018-06-17T20:58:17.990Z,23.49
2018-06-17T21:00:46.637Z,23.32
2018-06-17T21:03:15.456Z,23.29
2018-06-17T21:05:44.198Z,23.43
2018-06-17T21:08:12.887Z,23.52
2018-06-17T21:10:41.502Z,23.62
2018-06-17T21:13:10.206Z,23.57
2018-06-17T21:15:38.843Z,23.42
2018-06-17T21:18:07.550Z,23.28
2018-06-17T21:20:41.439Z,23.15
2018-06-17T21:23:15.594Z,23.17
2018-06-17T21:25:49.400Z,23.08
2018-06-17T21:28:18.057Z,23.05
2018-06-17T21:30:46.805Z,22.88
2018-06-17T21:33:15.538Z,22.90
2018-06-17T21:35:44.576Z,22.92
2018-06-17T21:38:13.300Z,22.83
2018-06-17T21:40:41.948Z,22.74
2018-06-17T21:43:10.575Z,22.72
2018-06-17T21:45:39.274Z,22.64
2018-06-17T21:48:07.978Z,22.62
2018-06-17T21:50:36.908Z,22.57
2018-06-17T21:53:05.566Z,22.57
2018-06-17T21:55:34.206Z,22.50
2018-06-17T21:58:02.920Z,22.46
2018-06-17T22:00:31.749Z,22.47
2018-06-17T22:03:00.778Z,22.43
2018-06-17T22:05:30.147Z,22.37
2018-06-17T22:08:03.898Z,22.41
2018-06-17T22:10:38.369Z,22.26
2018-06-17T22:13:07.851Z,22.24
2018-06-17T22:15:41.827Z,22.17
2018-06-17T22:18:10.764Z,22.19
2018-06-17T22:20:39.952Z,22.20
2018-06-17T22:23:09.913Z,22.10
2018-06-17T22:25:38.756Z,22.09
2018-06-17T22:28:07.542Z,21.98
2018-06-17T22:30:36.193Z,22.03
2018-06-17T22:33:05.712Z,22.05
2018-06-17T22:35:34.370Z,21.95
2018-06-17T22:38:03.056Z,21.93
2018-06-17T22:40:31.736Z,21.94
2018-06-17T22:43:00.828Z,21.85
2018-06-17T22:45:29.447Z,21.91
2018-06-17T22:47:58.586Z,21.83
2018-06-17T22:50:27.303Z,21.83
2018-06-17T22:53:06.942Z,21.94
2018-06-17T22:55:35.643Z,21.82
2018-06-17T22:58:09.741Z,21.82
2018-06-17T23:00:43.651Z,21.81
2018-06-17T23:03:17.623Z,21.68
2018-06-17T23:05:51.728Z,21.66
2018-06-17T23:08:25.661Z,21.63
2018-06-17T23:10:54.242Z,21.60
2018-06-17T23:13:22.954Z,21.52
2018-06-17T23:15:51.599Z,21.55
2018-06-17T23:18:20.306Z,21.49
2018-06-17T23:20:49.014Z,21.49
2018-06-17T23:23:17.945Z,21.41
2018-06-17T23:25:46.617Z,21.40
2018-06-17T23:28:15.395Z,21.55
2018-06-17T23:30:44.745Z,21.56
2018-06-17T23:33:13.439Z,21.52
2018-06-17T23:35:43.428Z,21.55
2018-06-17T23:38:12.078Z,21.48
2018-06-17T23:40:40.731Z,21.52
2018-06-17T23:43:09.392Z,21.39
2018-06-17T23:45:42.194Z,21.35
2018-06-17T23:48:15.977Z,21.38
2018-06-17T23:50:49.842Z,21.38
2018-06-17T23:53:23.567Z,21.25
2018-06-17T23:55:57.410Z,21.22
2018-06-17T23:58:26.057Z,21.08
